Time;durP1;ratioP1;P1;durP2;ratioP2;P2;SDS_P1;SDS_P2;PMS_P1;PMS_P2;Temp;Humidity;BMP_temperature;BMP_pressure;BME280_temperature;BME280_humidity;BME280_pressure;Samples;Min_cycle;Max_cycle;Signal;HPM_P1;HPM_P2
2022/04/24 00:02:25;;;;;;;;;;;14.90;63.70;;;;;;5047720;28;86509;-51
2022/04/24 00:04:50;;;;;;;;;;;14.90;63.70;;;;;;5047356;28;86958;-50
2022/04/24 00:07:17;;;;;;;;;;;14.90;63.70;;;;;;5046489;28;88587;-54
2022/04/24 00:09:43;;;;;;;;;;;14.90;63.70;;;;;;5046470;28;87726;-51
2022/04/24 00:12:09;;;;;;;;;;;14.90;63.70;;;;;;5049461;28;88150;-51
2022/04/24 00:14:35;;;;;;;;;;;14.90;63.70;;;;;;5046854;28;87107;-52
2022/04/24 00:17:01;;;;;;;;;;;14.90;63.70;;;;;;5047042;28;86873;-54
2022/04/24 00:19:27;;;;;;;;;;;14.80;63.70;;;;;;5046369;28;88883;-50
2022/04/24 00:21:52;;;;;;;;;;;14.80;63.70;;;;;;5046935;28;87155;-51
2022/04/24 00:24:18;;;;;;;;;;;14.80;63.70;;;;;;5046607;28;87924;-52
2022/04/24 00:26:44;;;;;;;;;;;14.80;63.70;;;;;;5046751;28;87888;-53
2022/04/24 00:29:09;;;;;;;;;;;14.80;63.70;;;;;;5046834;28;86905;-53
2022/04/24 00:31:35;;;;;;;;;;;14.70;63.60;;;;;;5046549;28;87888;-50
2022/04/24 00:34:01;;;;;;;;;;;14.70;63.60;;;;;;5048428;28;88727;-53
2022/04/24 00:36:26;;;;;;;;;;;14.70;63.70;;;;;;5046384;28;88569;-53
2022/04/24 00:38:52;;;;;;;;;;;14.70;63.70;;;;;;5046428;28;87624;-53
2022/04/24 00:41:17;;;;;;;;;;;14.60;63.50;;;;;;5046674;28;86927;-50
2022/04/24 00:43:53;;;;;;;;;;;14.70;63.60;;;;;;5046636;28;86893;-51
2022/04/24 00:46:45;;;;;;;;;;;14.70;63.60;;;;;;5046005;28;88610;-52
2022/04/24 00:49:12;;;;;;;;;;;14.70;63.60;;;;;;5040603;28;87030;-51
2022/04/24 00:51:38;;;;;;;;;;;14.60;63.50;;;;;;5046866;28;87900;-50
2022/04/24 00:54:07;;;;;;;;;;;14.60;63.50;;;;;;5045843;28;88448;-53
2022/04/24 00:56:33;;;;;;;;;;;14.60;63.50;;;;;;5049135;28;87078;-51
2022/04/24 00:59:01;;;;;;;;;;;14.60;63.60;;;;;;5045114;28;88631;-50
2022/04/24 01:01:27;;;;;;;;;;;14.60;63.50;;;;;;5046313;28;86867;-50
2022/04/24 01:03:54;;;;;;;;;;;14.60;63.50;;;;;;5046150;28;87938;-52
2022/04/24 01:06:19;;;;;;;;;;;14.50;63.50;;;;;;5045745;28;89087;-49
2022/04/24 01:08:45;;;;;;;;;;;14.50;63.50;;;;;;5046198;28;86778;-49
2022/04/24 01:11:10;;;;;;;;;;;14.50;63.50;;;;;;5046031;28;87192;-50
2022/04/24 01:13:36;;;;;;;;;;;14.50;63.50;;;;;;5045295;28;88621;-50
2022/04/24 01:16:02;;;;;;;;;;;14.50;63.50;;;;;;5046805;28;86086;-50
2022/04/24 01:18:29;;;;;;;;;;;14.50;63.50;;;;;;5048871;28;86865;-53
2022/04/24 01:20:54;;;;;;;;;;;14.40;63.50;;;;;;5045864;28;86896;-53
2022/04/24 01:23:20;;;;;;;;;;;14.40;63.50;;;;;;5045283;28;87824;-50
2022/04/24 01:25:45;;;;;;;;;;;14.40;63.50;;;;;;5045823;28;86869;-51
2022/04/24 01:28:11;;;;;;;;;;;14.40;63.60;;;;;;5045842;28;86865;-51
2022/04/24 01:30:37;;;;;;;;;;;14.30;63.50;;;;;;5045820;28;87058;-50
2022/04/24 01:33:03;;;;;;;;;;;14.30;63.50;;;;;;5045683;28;87570;-51
2022/04/24 01:35:31;;;;;;;;;;;14.40;63.50;;;;;;5045770;28;86937;-50
2022/04/24 01:37:58;;;;;;;;;;;14.30;63.50;;;;;;5048366;28;87255;-50
2022/04/24 01:40:24;;;;;;;;;;;14.30;63.50;;;;;;5046112;28;86440;-50
2022/04/24 01:42:50;;;;;;;;;;;14.30;63.50;;;;;;5046000;28;87224;-50
2022/04/24 01:45:16;;;;;;;;;;;14.30;63.50;;;;;;5045287;28;87654;-51
2022/04/24 01:47:41;;;;;;;;;;;14.30;63.50;;;;;;5045258;28;87816;-50
2022/04/24 01:50:07;;;;;;;;;;;14.20;63.40;;;;;;5045564;28;89022;-51
2022/04/24 01:52:33;;;;;;;;;;;14.20;63.50;;;;;;5045068;28;88446;-49
2022/04/24 01:54:58;;;;;;;;;;;14.20;63.50;;;;;;5045528;28;86908;-53
2022/04/24 01:57:24;;;;;;;;;;;14.20;63.40;;;;;;5045497;28;88050;-50
2022/04/24 01:59:49;;;;;;;;;;;14.20;63.40;;;;;;5048855;27;87515;-50
2022/04/24 02:02:15;;;;;;;;;;;14.20;63.50;;;;;;5048773;28;87978;-50
2022/04/24 02:04:41;;;;;;;;;;;14.10;63.50;;;;;;5049023;28;87759;-49
2022/04/24 02:07:06;;;;;;;;;;;14.10;63.50;;;;;;5048062;28;87166;-52
2022/04/24 02:09:33;;;;;;;;;;;14.10;63.50;;;;;;5048856;28;87395;-49
2022/04/24 02:11:59;;;;;;;;;;;14.10;63.50;;;;;;5047325;28;88627;-49
2022/04/24 02:14:25;;;;;;;;;;;14.00;63.50;;;;;;5048644;28;86864;-51
2022/04/24 02:16:50;;;;;;;;;;;14.00;63.50;;;;;;5048703;28;87848;-49
2022/04/24 02:19:16;;;;;;;;;;;14.00;63.50;;;;;;5048227;28;87525;-49
2022/04/24 02:21:42;;;;;;;;;;;14.00;63.50;;;;;;5051765;28;86866;-50
2022/04/24 02:24:07;;;;;;;;;;;14.00;63.50;;;;;;5048473;28;87672;-52
2022/04/24 02:26:33;;;;;;;;;;;14.00;63.50;;;;;;5048446;28;86929;-50
2022/04/24 02:28:59;;;;;;;;;;;13.90;63.40;;;;;;5049214;28;86858;-49
2022/04/24 02:31:24;;;;;;;;;;;13.90;63.50;;;;;;5047456;28;86913;-52
2022/04/24 02:33:50;;;;;;;;;;;13.90;63.40;;;;;;5048755;28;87116;-50
2022/04/24 02:36:16;;;;;;;;;;;13.90;63.50;;;;;;5047696;28;87798;-50
2022/04/24 02:38:41;;;;;;;;;;;13.90;63.40;;;;;;5047945;28;88436;-51
2022/04/24 02:41:08;;;;;;;;;;;13.90;63.50;;;;;;5048228;28;86895;-50
2022/04/24 02:43:34;;;;;;;;;;;13.90;63.50;;;;;;5051078;28;86840;-49
2022/04/24 02:45:59;;;;;;;;;;;13.90;63.40;;;;;;5048251;28;86951;-52
2022/04/24 02:48:27;;;;;;;;;;;13.80;63.50;;;;;;5048243;28;87106;-50
2022/04/24 02:50:53;;;;;;;;;;;13.80;63.40;;;;;;5047701;28;87952;-50
2022/04/24 02:53:19;;;;;;;;;;;13.80;63.50;;;;;;5048524;28;86447;-51
2022/04/24 02:55:45;;;;;;;;;;;13.80;63.60;;;;;;5048095;28;87494;-53
2022/04/24 02:58:10;;;;;;;;;;;13.80;63.60;;;;;;5047779;28;87611;-50
2022/04/24 03:00:50;;;;;;;;;;;13.80;63.60;;;;;;5047188;28;88237;-51
2022/04/24 03:03:19;;;;;;;;;;;13.70;63.50;;;;;;5047852;28;87966;-50
2022/04/24 03:05:48;;;;;;;;;;;13.70;63.50;;;;;;5050299;28;88591;-54
2022/04/24 03:08:17;;;;;;;;;;;13.70;63.50;;;;;;5048008;28;86896;-51
2022/04/24 03:10:43;;;;;;;;;;;13.70;63.50;;;;;;5047257;27;86916;-50
2022/04/24 03:13:10;;;;;;;;;;;13.60;63.50;;;;;;5047419;28;86951;-51
2022/04/24 03:15:37;;;;;;;;;;;13.60;63.50;;;;;;5047822;28;87086;-50
2022/04/24 03:18:04;;;;;;;;;;;13.60;63.50;;;;;;5047782;28;87886;-51
2022/04/24 03:20:30;;;;;;;;;;;13.60;63.50;;;;;;5047572;28;86869;-52
2022/04/24 03:22:56;;;;;;;;;;;13.60;63.50;;;;;;5047626;28;86929;-50
2022/04/24 03:25:22;;;;;;;;;;;13.60;63.50;;;;;;5046591;28;88618;-50
2022/04/24 03:27:47;;;;;;;;;;;13.60;63.50;;;;;;5050754;28;86845;-50
2022/04/24 03:30:13;;;;;;;;;;;13.60;63.50;;;;;;5047051;28;88988;-49
2022/04/24 03:32:39;;;;;;;;;;;13.50;63.50;;;;;;5047527;28;86853;-51
2022/04/24 03:35:06;;;;;;;;;;;13.50;63.50;;;;;;5047391;28;87971;-50
2022/04/24 03:37:32;;;;;;;;;;;13.50;63.50;;;;;;5046903;28;89061;-49
2022/04/24 03:39:58;;;;;;;;;;;13.50;63.40;;;;;;5047291;28;86897;-50
2022/04/24 03:42:27;;;;;;;;;;;13.50;63.50;;;;;;5047635;28;87939;-50
2022/04/24 03:44:55;;;;;;;;;;;13.50;63.40;;;;;;5046899;28;88500;-51
2022/04/24 03:47:21;;;;;;;;;;;13.50;63.50;;;;;;5050390;28;87200;-50
2022/04/24 03:49:47;;;;;;;;;;;13.40;63.50;;;;;;5046093;28;89391;-50
2022/04/24 03:52:13;;;;;;;;;;;13.40;63.50;;;;;;5047049;28;86993;-53
2022/04/24 03:54:40;;;;;;;;;;;13.40;63.50;;;;;;5047162;28;87137;-52
2022/04/24 03:57:05;;;;;;;;;;;13.40;63.50;;;;;;5046667;28;88793;-51
2022/04/24 03:59:31;;;;;;;;;;;13.40;63.50;;;;;;5047268;28;86922;-51
2022/04/24 04:01:57;;;;;;;;;;;13.30;63.50;;;;;;5046825;28;87079;-50
2022/04/24 04:04:23;;;;;;;;;;;13.30;63.50;;;;;;5046924;28;86906;-53
2022/04/24 04:06:49;;;;;;;;;;;13.30;63.50;;;;;;5047623;28;86193;-51
2022/04/24 04:09:14;;;;;;;;;;;13.30;63.50;;;;;;5049444;28;87388;-49
2022/04/24 04:11:40;;;;;;;;;;;13.30;63.50;;;;;;5043518;28;86918;-50
2022/04/24 04:14:06;;;;;;;;;;;13.30;63.50;;;;;;5026368;28;87915;-50
2022/04/24 04:16:32;;;;;;;;;;;13.20;63.50;;;;;;5026203;28;87740;-53
2022/04/24 04:18:57;;;;;;;;;;;13.20;63.50;;;;;;5026530;28;86889;-53
2022/04/24 04:21:23;;;;;;;;;;;13.30;63.40;;;;;;5026370;28;86956;-51
2022/04/24 04:23:48;;;;;;;;;;;13.20;63.40;;;;;;5025379;28;88643;-52
2022/04/24 04:26:17;;;;;;;;;;;13.20;63.30;;;;;;5026335;28;87172;-52
2022/04/24 04:28:46;;;;;;;;;;;13.20;63.50;;;;;;5026425;28;87859;-53
2022/04/24 04:31:12;;;;;;;;;;;13.10;63.50;;;;;;5029411;28;87998;-52
2022/04/24 04:33:38;;;;;;;;;;;13.20;63.50;;;;;;5026288;28;87629;-53
2022/04/24 04:36:04;;;;;;;;;;;13.10;63.50;;;;;;5025939;28;87404;-50
2022/04/24 04:38:30;;;;;;;;;;;13.10;63.50;;;;;;5025636;28;87788;-50
2022/04/24 04:40:55;;;;;;;;;;;13.10;63.50;;;;;;5026063;28;89152;-50
2022/04/24 04:43:21;;;;;;;;;;;13.10;63.50;;;;;;5025869;28;88655;-52
2022/04/24 04:45:47;;;;;;;;;;;13.10;63.50;;;;;;5026475;28;86872;-49
2022/04/24 04:48:13;;;;;;;;;;;13.10;63.50;;;;;;5026211;28;87891;-50
2022/04/24 04:50:39;;;;;;;;;;;13.10;63.50;;;;;;5025685;28;88571;-52
2022/04/24 04:53:05;;;;;;;;;;;13.10;63.50;;;;;;5029070;28;86902;-49
2022/04/24 04:55:31;;;;;;;;;;;13.10;63.50;;;;;;5026235;28;87828;-50
2022/04/24 04:57:58;;;;;;;;;;;13.00;63.50;;;;;;5026084;28;86977;-51
2022/04/24 05:00:23;;;;;;;;;;;13.00;63.50;;;;;;5025941;28;87889;-49
2022/04/24 05:02:49;;;;;;;;;;;13.00;63.50;;;;;;5024995;28;89666;-50
2022/04/24 05:05:14;;;;;;;;;;;13.00;63.50;;;;;;5025820;28;86978;-51
2022/04/24 05:07:40;;;;;;;;;;;13.00;63.50;;;;;;5026268;28;87118;-50
2022/04/24 05:10:06;;;;;;;;;;;13.00;63.50;;;;;;5025478;28;88614;-52
2022/04/24 05:12:32;;;;;;;;;;;13.00;63.50;;;;;;5035673;28;86896;-50
2022/04/24 05:15:02;;;;;;;;;;;13.00;63.50;;;;;;5048812;28;87028;-50
2022/04/24 05:17:27;;;;;;;;;;;13.00;63.50;;;;;;5046060;28;86812;-51
2022/04/24 05:19:53;;;;;;;;;;;13.00;63.50;;;;;;5046603;28;87391;-52
2022/04/24 05:22:19;;;;;;;;;;;12.90;63.50;;;;;;5045853;28;87523;-50
2022/04/24 05:24:45;;;;;;;;;;;13.00;63.50;;;;;;5046190;28;86980;-49
2022/04/24 05:27:11;;;;;;;;;;;13.00;63.50;;;;;;5045295;28;88248;-49
2022/04/24 05:29:36;;;;;;;;;;;13.00;63.50;;;;;;5045472;28;88714;-52
2022/04/24 05:32:02;;;;;;;;;;;13.00;63.50;;;;;;5045618;28;87056;-51
2022/04/24 05:34:28;;;;;;;;;;;13.00;63.50;;;;;;5049951;27;86866;-50
2022/04/24 05:36:53;;;;;;;;;;;12.90;63.40;;;;;;5048099;28;86899;-52
2022/04/24 05:39:19;;;;;;;;;;;13.00;63.50;;;;;;5049221;28;86857;-51
2022/04/24 05:41:45;;;;;;;;;;;13.00;63.50;;;;;;5048212;28;88013;-51
2022/04/24 05:44:10;;;;;;;;;;;13.00;63.50;;;;;;5049110;28;86281;-52
2022/04/24 05:46:36;;;;;;;;;;;13.00;63.60;;;;;;5048679;28;86885;-51
2022/04/24 05:49:02;;;;;;;;;;;13.00;63.50;;;;;;5048129;28;87680;-50
2022/04/24 05:51:28;;;;;;;;;;;13.00;63.50;;;;;;5029935;28;87974;-53
2022/04/24 05:53:54;;;;;;;;;;;13.10;63.50;;;;;;5049101;28;87659;-50
2022/04/24 05:56:20;;;;;;;;;;;13.00;63.50;;;;;;5051025;28;88523;-50
2022/04/24 05:58:46;;;;;;;;;;;13.00;63.50;;;;;;5048511;28;87126;-52
2022/04/24 06:01:11;;;;;;;;;;;13.00;63.50;;;;;;5048203;28;86888;-50
2022/04/24 06:03:40;;;;;;;;;;;13.00;63.50;;;;;;5048163;28;86874;-49
2022/04/24 06:06:05;;;;;;;;;;;13.10;63.40;;;;;;5048377;28;87893;-50
2022/04/24 06:08:31;;;;;;;;;;;13.10;63.50;;;;;;5048609;28;87339;-50
2022/04/24 06:10:56;;;;;;;;;;;13.10;63.50;;;;;;5048042;28;86824;-52
2022/04/24 06:13:22;;;;;;;;;;;13.10;63.50;;;;;;5048271;28;87029;-50
2022/04/24 06:15:48;;;;;;;;;;;13.10;63.50;;;;;;5046371;28;88390;-49
2022/04/24 06:18:13;;;;;;;;;;;13.10;63.60;;;;;;5051008;28;86995;-50
2022/04/24 06:20:39;;;;;;;;;;;13.10;63.60;;;;;;5047706;28;87513;-49
2022/04/24 06:23:05;;;;;;;;;;;13.00;63.50;;;;;;5047992;28;86875;-52
2022/04/24 06:25:31;;;;;;;;;;;13.10;63.60;;;;;;5048175;28;87174;-50
2022/04/24 06:27:57;;;;;;;;;;;13.00;63.50;;;;;;5047667;28;88796;-52
2022/04/24 06:30:24;;;;;;;;;;;13.10;63.70;;;;;;5047955;28;86928;-50
2022/04/24 06:32:50;;;;;;;;;;;13.10;63.60;;;;;;5048494;28;88188;-50
2022/04/24 06:35:16;;;;;;;;;;;13.10;63.60;;;;;;5047736;28;87436;-53
2022/04/24 06:37:46;;;;;;;;;;;13.10;63.60;;;;;;5048099;28;86916;-50
2022/04/24 06:40:13;;;;;;;;;;;13.10;63.60;;;;;;5049796;28;87976;-50
2022/04/24 06:42:51;;;;;;;;;;;13.10;63.60;;;;;;5047630;28;87102;-50
2022/04/24 06:45:20;;;;;;;;;;;13.10;63.60;;;;;;5046979;27;87981;-50
2022/04/24 06:47:45;;;;;;;;;;;13.10;63.60;;;;;;5047569;28;87548;-51
2022/04/24 06:50:11;;;;;;;;;;;13.10;63.80;;;;;;5047858;28;87190;-53
2022/04/24 06:52:37;;;;;;;;;;;13.10;63.80;;;;;;5047986;28;86906;-51
2022/04/24 06:55:04;;;;;;;;;;;13.00;64.10;;;;;;5047517;28;87505;-53
2022/04/24 06:57:29;;;;;;;;;;;13.00;64.20;;;;;;5048040;28;86208;-54
2022/04/24 06:59:55;;;;;;;;;;;13.00;64.20;;;;;;5047577;28;87293;-50
2022/04/24 07:02:20;;;;;;;;;;;13.10;64.20;;;;;;5049922;28;88712;-49
2022/04/24 07:04:46;;;;;;;;;;;13.10;64.30;;;;;;5047180;28;87789;-52
2022/04/24 07:07:11;;;;;;;;;;;13.10;64.10;;;;;;5047113;28;88408;-52
2022/04/24 07:09:37;;;;;;;;;;;13.10;64.10;;;;;;5047544;28;87217;-50
2022/04/24 07:12:03;;;;;;;;;;;13.10;64.20;;;;;;5047063;28;87305;-51
2022/04/24 07:14:29;;;;;;;;;;;13.10;64.30;;;;;;5047224;28;87607;-49
2022/04/24 07:16:54;;;;;;;;;;;13.10;64.50;;;;;;5047276;28;86877;-51
2022/04/24 07:19:20;;;;;;;;;;;13.10;64.50;;;;;;5047654;28;86873;-52
2022/04/24 07:21:48;;;;;;;;;;;13.10;64.30;;;;;;5046722;28;87060;-52
2022/04/24 07:24:13;;;;;;;;;;;13.10;64.60;;;;;;5050349;28;86921;-52
2022/04/24 07:26:39;;;;;;;;;;;13.10;64.40;;;;;;5046716;28;88445;-49
2022/04/24 07:29:04;;;;;;;;;;;13.20;64.40;;;;;;5046574;28;87833;-52
2022/04/24 07:31:30;;;;;;;;;;;13.10;64.30;;;;;;5046399;28;86899;-53
2022/04/24 07:33:56;;;;;;;;;;;13.10;64.40;;;;;;5046675;28;88998;-50
2022/04/24 07:36:22;;;;;;;;;;;13.20;64.30;;;;;;5046918;28;86908;-52
2022/04/24 07:38:50;;;;;;;;;;;13.10;64.30;;;;;;5046965;28;87991;-49
2022/04/24 07:41:16;;;;;;;;;;;13.20;64.40;;;;;;5046272;28;88046;-50
2022/04/24 07:43:48;;;;;;;;;;;13.20;64.40;;;;;;5049888;28;86922;-49
2022/04/24 07:46:14;;;;;;;;;;;13.20;64.40;;;;;;5046887;28;86803;-50
2022/04/24 07:48:39;;;;;;;;;;;13.20;64.40;;;;;;5046972;28;86940;-50
2022/04/24 07:51:05;;;;;;;;;;;13.20;64.40;;;;;;5046026;28;87014;-49
2022/04/24 07:53:31;;;;;;;;;;;13.20;64.50;;;;;;5045640;28;89540;-54
2022/04/24 07:55:56;;;;;;;;;;;13.20;64.50;;;;;;5046637;28;87179;-50
2022/04/24 07:58:22;;;;;;;;;;;13.20;65.10;;;;;;5044915;27;86832;-50
2022/04/24 08:00:47;;;;;;;;;;;13.20;64.50;;;;;;5046356;28;87461;-49
2022/04/24 08:03:14;;;;;;;;;;;13.30;64.50;;;;;;5046893;28;87096;-51
2022/04/24 08:05:43;;;;;;;;;;;13.20;64.50;;;;;;5049117;28;87930;-50
2022/04/24 08:08:15;;;;;;;;;;;13.20;64.60;;;;;;5046411;28;86989;-49
2022/04/24 08:10:43;;;;;;;;;;;13.20;64.50;;;;;;5046839;28;87969;-52
2022/04/24 08:13:09;;;;;;;;;;;13.20;64.60;;;;;;5045260;28;88524;-53
2022/04/24 08:15:35;;;;;;;;;;;13.30;64.60;;;;;;5046805;28;87269;-50
2022/04/24 08:18:01;;;;;;;;;;;13.20;64.60;;;;;;5046002;28;87842;-50
2022/04/24 08:20:27;;;;;;;;;;;13.20;64.50;;;;;;5045923;28;88764;-50
2022/04/24 08:22:53;;;;;;;;;;;13.30;64.40;;;;;;5046514;28;87210;-50
2022/04/24 08:25:20;;;;;;;;;;;13.30;64.40;;;;;;5046345;28;86833;-50
2022/04/24 08:27:47;;;;;;;;;;;13.30;64.40;;;;;;5048887;28;87475;-51
2022/04/24 08:30:14;;;;;;;;;;;13.30;64.40;;;;;;5046237;28;88155;-50
2022/04/24 08:32:40;;;;;;;;;;;13.30;64.40;;;;;;5046179;28;87901;-52
2022/04/24 08:35:07;;;;;;;;;;;13.30;64.30;;;;;;5046584;28;86245;-50
2022/04/24 08:37:32;;;;;;;;;;;13.30;64.20;;;;;;5046619;28;87202;-50
2022/04/24 08:39:58;;;;;;;;;;;13.30;64.20;;;;;;5045623;28;87592;-49
2022/04/24 08:42:24;;;;;;;;;;;13.30;64.30;;;;;;5045525;28;87892;-50
2022/04/24 08:44:50;;;;;;;;;;;13.40;64.30;;;;;;5045877;28;88407;-52
2022/04/24 08:47:16;;;;;;;;;;;13.40;64.10;;;;;;5045623;28;87825;-50
2022/04/24 08:49:42;;;;;;;;;;;13.40;64.20;;;;;;5048975;28;86885;-49
2022/04/24 08:52:12;;;;;;;;;;;13.40;64.20;;;;;;5045604;28;88575;-50
2022/04/24 08:54:38;;;;;;;;;;;13.50;64.30;;;;;;5045877;28;86924;-50
2022/04/24 08:57:04;;;;;;;;;;;13.50;64.20;;;;;;5046066;28;86961;-51
2022/04/24 08:59:29;;;;;;;;;;;13.50;64.20;;;;;;5046199;28;86971;-50
2022/04/24 09:01:57;;;;;;;;;;;13.50;64.20;;;;;;5045537;28;87198;-50
2022/04/24 09:04:23;;;;;;;;;;;13.50;64.30;;;;;;5045657;28;88243;-52
2022/04/24 09:06:59;;;;;;;;;;;13.50;64.20;;;;;;5044973;28;89158;-50
2022/04/24 09:09:24;;;;;;;;;;;13.50;64.70;;;;;;5047389;27;86906;-50
2022/04/24 09:11:50;;;;;;;;;;;13.50;64.50;;;;;;5051558;28;88009;-50
2022/04/24 09:14:18;;;;;;;;;;;13.50;64.60;;;;;;5048824;28;87057;-50
2022/04/24 09:16:48;;;;;;;;;;;13.60;64.60;;;;;;5049180;28;87270;-49
2022/04/24 09:19:17;;;;;;;;;;;13.60;64.60;;;;;;5048743;28;88684;-51
2022/04/24 09:21:43;;;;;;;;;;;13.60;64.30;;;;;;5049060;28;86912;-50
2022/04/24 09:24:08;;;;;;;;;;;13.60;64.30;;;;;;5049532;28;87957;-52
2022/04/24 09:26:34;;;;;;;;;;;13.70;64.50;;;;;;5048524;28;89325;-51
2022/04/24 09:28:59;;;;;;;;;;;13.70;64.50;;;;;;5048863;28;86886;-50
2022/04/24 09:31:29;;;;;;;;;;;13.70;64.50;;;;;;5048208;28;87848;-50
2022/04/24 09:33:54;;;;;;;;;;;13.70;64.40;;;;;;5051505;28;87509;-50
2022/04/24 09:36:23;;;;;;;;;;;13.70;64.50;;;;;;5048584;28;88018;-50
2022/04/24 09:38:49;;;;;;;;;;;13.70;64.30;;;;;;5048761;28;87551;-50
2022/04/24 09:41:24;;;;;;;;;;;13.80;64.30;;;;;;5048745;28;86986;-50
2022/04/24 09:43:50;;;;;;;;;;;13.80;64.30;;;;;;5048207;28;86842;-50
2022/04/24 09:46:28;;;;;;;;;;;13.80;64.40;;;;;;5048123;28;88598;-50
2022/04/24 09:48:57;;;;;;;;;;;13.80;64.30;;;;;;5049062;28;86221;-50
2022/04/24 09:51:22;;;;;;;;;;;13.90;64.40;;;;;;5048799;28;86885;-50
2022/04/24 09:53:49;;;;;;;;;;;13.90;64.50;;;;;;5051315;28;88622;-51
2022/04/24 09:56:15;;;;;;;;;;;13.90;64.60;;;;;;5048365;28;88309;-50
2022/04/24 09:58:41;;;;;;;;;;;13.90;64.50;;;;;;5048051;28;88642;-50
2022/04/24 10:01:08;;;;;;;;;;;13.90;64.60;;;;;;5048468;28;86889;-51
2022/04/24 10:03:35;;;;;;;;;;;14.00;64.50;;;;;;5048481;28;88091;-50
2022/04/24 10:06:02;;;;;;;;;;;14.00;64.50;;;;;;5048513;28;87472;-52
2022/04/24 10:08:28;;;;;;;;;;;14.00;64.60;;;;;;5048269;28;86886;-51
2022/04/24 10:10:53;;;;;;;;;;;14.10;64.70;;;;;;5048619;28;87402;-52
2022/04/24 10:13:20;;;;;;;;;;;14.10;64.60;;;;;;5031265;28;87051;-50
2022/04/24 10:15:48;;;;;;;;;;;14.10;64.50;;;;;;5030852;28;86792;-54
2022/04/24 10:18:23;;;;;;;;;;;14.10;64.50;;;;;;5027732;28;88570;-50
2022/04/24 10:21:06;;;;;;;;;;;14.10;64.60;;;;;;5026316;28;87808;-50
2022/04/24 10:23:33;;;;;;;;;;;14.20;64.60;;;;;;5027911;28;89024;-50
2022/04/24 10:25:59;;;;;;;;;;;14.20;64.70;;;;;;5027902;28;87323;-53
2022/04/24 10:28:27;;;;;;;;;;;14.20;64.60;;;;;;5027869;28;86825;-51
2022/04/24 10:30:57;;;;;;;;;;;14.30;64.60;;;;;;5028073;28;86911;-51
2022/04/24 10:33:24;;;;;;;;;;;14.30;64.60;;;;;;5027403;28;88305;-54
2022/04/24 10:36:08;;;;;;;;;;;14.30;64.60;;;;;;5027780;28;86967;-50
2022/04/24 10:38:45;;;;;;;;;;;14.40;64.60;;;;;;5031055;28;86881;-50
2022/04/24 10:41:15;;;;;;;;;;;14.40;64.60;;;;;;5027710;28;86904;-50
2022/04/24 10:43:44;;;;;;;;;;;14.40;64.50;;;;;;5027731;28;87735;-51
2022/04/24 10:46:27;;;;;;;;;;;14.40;64.70;;;;;;5026542;28;89415;-49
2022/04/24 10:48:54;;;;;;;;;;;14.50;64.70;;;;;;5027516;28;86892;-50
2022/04/24 10:51:29;;;;;;;;;;;14.50;64.60;;;;;;5027859;28;86962;-51
2022/04/24 10:53:56;;;;;;;;;;;14.50;64.60;;;;;;5027088;28;88712;-52
2022/04/24 10:56:22;;;;;;;;;;;14.50;64.70;;;;;;5027717;28;86904;-51
2022/04/24 10:58:49;;;;;;;;;;;14.60;65.30;;;;;;5027419;28;87782;-50
2022/04/24 11:01:15;;;;;;;;;;;14.60;64.60;;;;;;5029827;28;87643;-50
2022/04/24 11:03:42;;;;;;;;;;;14.70;64.70;;;;;;5027773;28;86880;-53
2022/04/24 11:06:19;;;;;;;;;;;14.70;64.80;;;;;;5026797;28;88744;-51
2022/04/24 11:08:44;;;;;;;;;;;14.70;64.60;;;;;;5027325;28;87086;-50
2022/04/24 11:11:13;;;;;;;;;;;14.70;64.60;;;;;;5026971;28;87812;-51
2022/04/24 11:13:39;;;;;;;;;;;14.80;64.60;;;;;;5045826;28;87699;-50
2022/04/24 11:16:06;;;;;;;;;;;14.80;64.50;;;;;;5047260;28;86885;-51
2022/04/24 11:18:32;;;;;;;;;;;14.80;64.50;;;;;;5047255;28;88180;-51
2022/04/24 11:20:59;;;;;;;;;;;14.80;64.50;;;;;;5046971;28;87596;-54
2022/04/24 11:23:26;;;;;;;;;;;14.80;64.50;;;;;;5050251;28;86897;-50
2022/04/24 11:25:53;;;;;;;;;;;14.90;64.50;;;;;;5046681;28;88506;-52
2022/04/24 11:28:18;;;;;;;;;;;14.90;64.40;;;;;;5047924;28;86215;-51
2022/04/24 11:30:44;;;;;;;;;;;14.90;64.50;;;;;;5047165;28;87031;-51
2022/04/24 11:33:09;;;;;;;;;;;15.00;64.50;;;;;;5046414;27;88394;-53
2022/04/24 11:35:36;;;;;;;;;;;15.00;64.50;;;;;;5046470;28;87878;-51
2022/04/24 11:38:02;;;;;;;;;;;15.00;64.40;;;;;;5046920;28;88062;-50
2022/04/24 11:40:28;;;;;;;;;;;15.10;64.50;;;;;;5046530;28;88348;-55
2022/04/24 11:43:03;;;;;;;;;;;15.10;64.50;;;;;;5046829;28;87005;-53
2022/04/24 11:51:03;;;;;;;;;;;15.20;64.50;;;;;;5047157;28;86975;-51
2022/04/24 11:53:28;;;;;;;;;;;15.20;64.40;;;;;;5046829;28;86924;-51
2022/04/24 11:56:03;;;;;;;;;;;15.20;64.50;;;;;;5046966;28;86924;-50
2022/04/24 11:58:33;;;;;;;;;;;15.30;64.40;;;;;;5046721;28;87994;-51
2022/04/24 12:00:59;;;;;;;;;;;15.30;64.40;;;;;;5045374;28;88558;-51
2022/04/24 12:03:25;;;;;;;;;;;15.30;64.40;;;;;;5046497;28;86904;-51
2022/04/24 12:05:57;;;;;;;;;;;15.40;64.40;;;;;;5049191;28;86883;-54
2022/04/24 12:08:23;;;;;;;;;;;15.40;64.40;;;;;;5046490;28;86853;-52
2022/04/24 12:10:49;;;;;;;;;;;15.40;64.40;;;;;;5046409;28;88065;-52
2022/04/24 12:13:21;;;;;;;;;;;15.40;64.30;;;;;;5045737;28;87791;-50
2022/04/24 12:15:53;;;;;;;;;;;15.50;64.30;;;;;;5046196;28;86936;-50
2022/04/24 12:18:20;;;;;;;;;;;15.50;64.30;;;;;;5047062;28;87953;-50
2022/04/24 12:20:47;;;;;;;;;;;15.50;64.20;;;;;;5045670;28;88756;-51
2022/04/24 12:23:15;;;;;;;;;;;15.50;64.30;;;;;;5046200;28;87178;-50
2022/04/24 12:25:54;;;;;;;;;;;15.60;64.20;;;;;;5045610;28;88069;-50
2022/04/24 12:28:26;;;;;;;;;;;15.60;64.80;;;;;;5048974;28;87457;-51
2022/04/24 12:30:51;;;;;;;;;;;15.60;64.20;;;;;;5046273;28;87982;-50
2022/04/24 12:33:17;;;;;;;;;;;15.70;64.30;;;;;;5045719;28;88675;-50
2022/04/24 12:35:44;;;;;;;;;;;15.70;64.30;;;;;;5046226;28;87262;-50
2022/04/24 12:38:16;;;;;;;;;;;15.70;64.30;;;;;;5046128;28;87912;-51
2022/04/24 12:40:41;;;;;;;;;;;15.80;64.20;;;;;;5045750;28;87437;-50
2022/04/24 12:43:07;;;;;;;;;;;15.80;64.20;;;;;;5046120;28;86178;-50
2022/04/24 12:45:35;;;;;;;;;;;15.80;64.20;;;;;;5046009;28;87181;-51
2022/04/24 12:48:01;;;;;;;;;;;15.90;64.30;;;;;;5045512;28;87618;-50
2022/04/24 12:50:26;;;;;;;;;;;15.90;64.20;;;;;;5048425;28;87824;-50
2022/04/24 12:52:52;;;;;;;;;;;15.90;64.20;;;;;;5045358;28;88721;-50
2022/04/24 12:55:18;;;;;;;;;;;15.90;64.20;;;;;;5045985;28;86901;-50
2022/04/24 12:57:43;;;;;;;;;;;16.00;64.10;;;;;;5046232;28;86929;-50
2022/04/24 13:02:45;;;;;;;;;;;16.00;64.10;;;;;;5294312;22;88271;-50
2022/04/24 13:05:11;;;;;;;;;;;16.10;64.20;;;;;;5025996;28;87215;-50
2022/04/24 13:07:36;;;;;;;;;;;16.10;64.10;;;;;;5025559;28;87019;-50
2022/04/24 13:10:02;;;;;;;;;;;16.20;64.30;;;;;;5025379;28;86889;-51
2022/04/24 13:12:28;;;;;;;;;;;16.20;64.20;;;;;;5027130;28;86863;-50
2022/04/24 13:14:53;;;;;;;;;;;16.20;64.10;;;;;;5024833;28;87907;-53
2022/04/24 13:20:03;;;;;;;;;;;16.30;64.20;;;;;;5025284;28;86798;-50
2022/04/24 13:22:28;;;;;;;;;;;16.30;64.10;;;;;;5025537;28;86797;-51
2022/04/24 13:24:54;;;;;;;;;;;16.40;64.20;;;;;;5025600;28;86777;-50
2022/04/24 13:27:20;;;;;;;;;;;16.40;64.20;;;;;;5025121;28;87433;-51
2022/04/24 13:29:46;;;;;;;;;;;16.40;64.20;;;;;;5025255;28;86938;-50
2022/04/24 13:32:12;;;;;;;;;;;16.50;64.40;;;;;;5025678;28;88104;-52
2022/04/24 13:34:38;;;;;;;;;;;16.50;64.30;;;;;;5027816;28;87673;-52
2022/04/24 13:39:50;;;;;;;;;;;16.60;64.40;;;;;;5024426;28;88210;-51
2022/04/24 13:42:15;;;;;;;;;;;16.60;64.40;;;;;;5025274;28;86865;-51
2022/04/24 13:44:41;;;;;;;;;;;16.70;64.30;;;;;;5024445;28;87092;-51
2022/04/24 13:47:06;;;;;;;;;;;16.70;64.30;;;;;;5023977;28;86907;-51
2022/04/24 13:49:35;;;;;;;;;;;16.70;64.40;;;;;;5025398;28;86894;-51
2022/04/24 13:52:01;;;;;;;;;;;16.80;64.40;;;;;;5025369;28;87565;-52
2022/04/24 13:54:27;;;;;;;;;;;16.80;64.40;;;;;;5025220;28;86968;-51
2022/04/24 13:56:56;;;;;;;;;;;16.80;64.40;;;;;;5032186;28;86135;-52
2022/04/24 13:59:25;;;;;;;;;;;16.90;64.40;;;;;;5028051;28;88604;-54
2022/04/24 14:01:51;;;;;;;;;;;16.90;64.20;;;;;;5028070;28;86981;-51
2022/04/24 14:04:17;;;;;;;;;;;16.90;64.40;;;;;;5028008;28;87836;-52
2022/04/24 14:06:43;;;;;;;;;;;17.00;64.40;;;;;;5028083;28;87394;-52
2022/04/24 14:09:09;;;;;;;;;;;17.00;64.40;;;;;;5028278;28;86961;-51
2022/04/24 14:11:34;;;;;;;;;;;17.00;64.40;;;;;;5028226;28;87992;-52
2022/04/24 14:14:00;;;;;;;;;;;17.00;64.40;;;;;;5028090;28;88129;-53
2022/04/24 14:16:25;;;;;;;;;;;17.10;65.10;;;;;;5031119;28;86843;-54
2022/04/24 14:18:51;;;;;;;;;;;17.10;64.50;;;;;;5028019;28;87506;-52
2022/04/24 14:21:16;;;;;;;;;;;17.10;64.30;;;;;;5028621;28;86101;-52
2022/04/24 14:23:43;;;;;;;;;;;17.10;64.30;;;;;;5028184;28;87147;-51
2022/04/24 14:26:08;;;;;;;;;;;17.20;64.40;;;;;;5027605;28;88468;-52
2022/04/24 14:28:34;;;;;;;;;;;17.20;64.30;;;;;;5026863;28;87824;-53